Time;durP1;ratioP1;P1;durP2;ratioP2;P2;SDS_P1;SDS_P2;PMS_P1;PMS_P2;Temp;Humidity;BMP_temperature;BMP_pressure;BME280_temperature;BME280_humidity;BME280_pressure;Samples;Min_cycle;Max_cycle;Signal;HPM_P1;HPM_P2
2022/10/11 00:01:15;;;;;;;9.88;7.07;;;;;;;;;;5072013;28;20053;-72
2022/10/11 00:03:41;;;;;;;10.20;7.38;;;;;;;;;;5072283;28;20043;-72
2022/10/11 00:06:08;;;;;;;11.25;7.85;;;;;;;;;;5072251;28;20056;-72
2022/10/11 00:08:34;;;;;;;11.82;7.35;;;;;;;;;;5071941;28;20051;-70
2022/10/11 00:11:03;;;;;;;9.55;6.60;;;;;;;;;;5072254;28;20056;-70
2022/10/11 00:13:29;;;;;;;12.55;7.40;;;;;;;;;;5071892;28;20055;-70
2022/10/11 00:15:56;;;;;;;10.77;7.18;;;;;;;;;;5071962;28;20078;-70
2022/10/11 00:18:22;;;;;;;11.38;7.30;;;;;;;;;;5071825;28;20056;-70
2022/10/11 00:20:49;;;;;;;11.95;7.50;;;;;;;;;;5071486;28;20403;-72
2022/10/11 00:23:15;;;;;;;11.13;7.55;;;;;;;;;;5072028;28;20051;-72
2022/10/11 00:25:42;;;;;;;11.77;7.10;;;;;;;;;;5071880;28;20048;-72
2022/10/11 00:28:08;;;;;;;13.38;7.40;;;;;;;;;;5071748;28;20059;-72
2022/10/11 00:30:34;;;;;;;10.23;6.97;;;;;;;;;;5071624;28;20052;-72
2022/10/11 00:33:01;;;;;;;13.10;7.55;;;;;;;;;;5071479;28;20060;-72
2022/10/11 00:35:28;;;;;;;10.85;7.32;;;;;;;;;;5071674;28;20484;-72
2022/10/11 00:37:55;;;;;;;8.80;7.25;;;;;;;;;;5071593;28;20507;-70
2022/10/11 00:40:21;;;;;;;11.80;7.40;;;;;;;;;;5071950;28;20056;-70
2022/10/11 00:42:48;;;;;;;10.07;7.10;;;;;;;;;;5071433;28;20052;-70
2022/10/11 00:45:26;;;;;;;9.77;7.03;;;;;;;;;;5071888;28;20070;-72
2022/10/11 00:47:53;;;;;;;9.68;7.60;;;;;;;;;;5071669;28;20043;-72
2022/10/11 00:50:21;;;;;;;13.05;7.10;;;;;;;;;;5071870;28;20395;-72
2022/10/11 00:52:56;;;;;;;8.15;6.38;;;;;;;;;;5071737;28;20059;-72
2022/10/11 00:55:24;;;;;;;7.95;5.93;;;;;;;;;;5071484;28;20049;-72
2022/10/11 00:57:51;;;;;;;10.23;6.82;;;;;;;;;;5071741;28;20048;-72
2022/10/11 01:00:18;;;;;;;11.63;6.93;;;;;;;;;;5071310;28;20055;-72
2022/10/11 01:02:45;;;;;;;8.00;6.30;;;;;;;;;;5071625;28;20082;-72
2022/10/11 01:05:14;;;;;;;8.98;6.55;;;;;;;;;;5071278;28;20054;-72
2022/10/11 01:07:55;;;;;;;10.07;6.95;;;;;;;;;;5071517;28;20055;-72
2022/10/11 01:10:21;;;;;;;12.13;7.20;;;;;;;;;;5071489;28;20048;-72
2022/10/11 01:12:54;;;;;;;12.32;7.53;;;;;;;;;;5071542;28;20049;-72
2022/10/11 01:15:39;;;;;;;11.77;7.38;;;;;;;;;;5071384;28;20057;-72
2022/10/11 01:18:14;;;;;;;12.98;7.32;;;;;;;;;;5071371;28;20074;-72
2022/10/11 01:20:41;;;;;;;9.18;6.63;;;;;;;;;;5071278;28;20067;-72
2022/10/11 01:23:22;;;;;;;11.88;7.00;;;;;;;;;;5071379;28;20045;-72
2022/10/11 01:25:55;;;;;;;8.88;6.35;;;;;;;;;;5071392;28;20045;-72
2022/10/11 01:28:27;;;;;;;9.48;6.43;;;;;;;;;;5071359;28;20407;-72
2022/10/11 01:30:55;;;;;;;11.77;6.93;;;;;;;;;;5071119;28;20064;-72
2022/10/11 01:33:34;;;;;;;7.07;6.15;;;;;;;;;;5074145;28;20059;-72
2022/10/11 01:36:00;;;;;;;8.70;6.53;;;;;;;;;;5074791;28;20052;-72
2022/10/11 01:38:31;;;;;;;9.25;5.97;;;;;;;;;;5074831;28;20477;-72
2022/10/11 01:41:00;;;;;;;8.90;6.47;;;;;;;;;;5075008;28;20380;-70
2022/10/11 01:43:28;;;;;;;10.70;6.20;;;;;;;;;;5074653;28;20506;-70
2022/10/11 01:45:55;;;;;;;8.75;6.15;;;;;;;;;;5074511;28;20488;-70
2022/10/11 01:48:22;;;;;;;8.95;6.63;;;;;;;;;;5074900;28;20159;-70
2022/10/11 01:50:51;;;;;;;10.82;6.40;;;;;;;;;;5074948;28;20048;-70
2022/10/11 01:53:42;;;;;;;9.93;6.32;;;;;;;;;;5074954;28;20049;-70
2022/10/11 01:56:17;;;;;;;7.35;5.70;;;;;;;;;;5074518;28;20058;-72
2022/10/11 01:58:58;;;;;;;10.13;6.40;;;;;;;;;;5074445;28;20567;-72
2022/10/11 02:01:40;;;;;;;11.55;6.30;;;;;;;;;;5074471;28;20052;-72
2022/10/11 02:04:23;;;;;;;6.72;5.55;;;;;;;;;;5074500;28;20049;-72
2022/10/11 02:06:55;;;;;;;10.38;5.85;;;;;;;;;;5074498;28;20049;-71
2022/10/11 02:09:28;;;;;;;8.20;5.85;;;;;;;;;;5074626;28;20373;-71
2022/10/11 02:11:58;;;;;;;9.52;6.25;;;;;;;;;;5074100;28;20514;-71
2022/10/11 02:14:25;;;;;;;8.45;5.70;;;;;;;;;;5074227;28;20059;-71
2022/10/11 02:16:56;;;;;;;8.13;5.53;;;;;;;;;;5074161;28;20508;-71
2022/10/11 02:19:26;;;;;;;7.28;5.65;;;;;;;;;;5067255;28;20045;-72
2022/10/11 02:21:55;;;;;;;7.15;5.10;;;;;;;;;;5074260;28;20098;-70
2022/10/11 02:24:24;;;;;;;8.18;5.95;;;;;;;;;;5074266;28;20064;-70
2022/10/11 02:26:53;;;;;;;8.55;5.95;;;;;;;;;;5074289;28;20079;-70
2022/10/11 02:29:21;;;;;;;8.27;5.70;;;;;;;;;;5074034;28;20051;-70
2022/10/11 02:31:49;;;;;;;8.07;5.72;;;;;;;;;;5074073;28;20045;-71
2022/10/11 02:34:41;;;;;;;9.52;5.80;;;;;;;;;;5073812;28;20075;-72
2022/10/11 02:37:15;;;;;;;8.13;5.55;;;;;;;;;;5071628;28;20044;-72
2022/10/11 02:39:54;;;;;;;7.80;5.65;;;;;;;;;;5073847;28;20045;-72
2022/10/11 02:42:32;;;;;;;8.93;5.10;;;;;;;;;;5073144;28;20052;-72
2022/10/11 02:45:01;;;;;;;7.35;5.80;;;;;;;;;;5073859;28;20486;-72
2022/10/11 02:47:29;;;;;;;9.20;5.00;;;;;;;;;;5072636;28;20047;-72
2022/10/11 02:49:56;;;;;;;9.70;5.10;;;;;;;;;;5073824;28;20051;-72
2022/10/11 02:52:22;;;;;;;10.00;5.57;;;;;;;;;;5073391;28;20041;-72
2022/10/11 02:54:49;;;;;;;8.73;5.25;;;;;;;;;;5073343;28;20049;-72
2022/10/11 02:57:15;;;;;;;10.10;5.47;;;;;;;;;;5072474;28;20052;-72
2022/10/11 02:59:41;;;;;;;8.23;5.25;;;;;;;;;;5073440;28;20070;-72
2022/10/11 03:02:08;;;;;;;9.70;5.18;;;;;;;;;;5073044;28;20052;-72
2022/10/11 03:04:34;;;;;;;7.90;5.30;;;;;;;;;;5073239;28;20045;-72
2022/10/11 03:07:01;;;;;;;9.27;4.95;;;;;;;;;;5073114;28;20482;-72
2022/10/11 03:09:27;;;;;;;7.70;5.32;;;;;;;;;;5073027;28;20135;-72
2022/10/11 03:11:53;;;;;;;6.68;4.80;;;;;;;;;;5073289;28;20067;-72
2022/10/11 03:14:20;;;;;;;8.23;4.63;;;;;;;;;;5073286;28;20045;-72
2022/10/11 03:16:46;;;;;;;7.85;4.72;;;;;;;;;;5073085;28;20052;-72
2022/10/11 03:19:12;;;;;;;7.88;4.95;;;;;;;;;;5072876;28;20044;-72
2022/10/11 03:21:44;;;;;;;6.63;4.55;;;;;;;;;;5073065;28;20083;-72
2022/10/11 03:24:10;;;;;;;6.57;4.88;;;;;;;;;;5072751;28;20509;-72
2022/10/11 03:26:37;;;;;;;7.82;4.90;;;;;;;;;;5072760;28;20392;-72
2022/10/11 03:29:03;;;;;;;9.38;4.55;;;;;;;;;;5072880;28;20048;-72
2022/10/11 03:31:30;;;;;;;7.65;4.55;;;;;;;;;;5072873;28;20050;-72
2022/10/11 03:33:56;;;;;;;7.18;4.10;;;;;;;;;;5072511;28;20525;-72
2022/10/11 03:36:22;;;;;;;8.32;4.18;;;;;;;;;;5072692;28;20056;-72
2022/10/11 03:38:49;;;;;;;5.40;3.95;;;;;;;;;;5072875;28;20048;-72
2022/10/11 03:41:15;;;;;;;7.75;4.38;;;;;;;;;;5072692;28;20048;-72
2022/10/11 03:43:41;;;;;;;7.63;4.22;;;;;;;;;;5072336;28;20051;-72
2022/10/11 03:46:08;;;;;;;6.55;3.90;;;;;;;;;;5072671;28;20054;-72
2022/10/11 03:48:34;;;;;;;7.40;4.30;;;;;;;;;;5071399;28;20405;-72
2022/10/11 03:51:01;;;;;;;7.18;3.88;;;;;;;;;;5072240;28;20058;-72
2022/10/11 03:53:27;;;;;;;5.15;3.60;;;;;;;;;;5072672;28;20044;-72
2022/10/11 03:55:54;;;;;;;6.63;4.03;;;;;;;;;;5071727;28;20078;-72
2022/10/11 03:58:21;;;;;;;7.50;4.40;;;;;;;;;;5072083;28;20520;-72
2022/10/11 04:00:48;;;;;;;7.13;4.20;;;;;;;;;;5072167;28;20049;-72
2022/10/11 04:03:14;;;;;;;7.00;4.10;;;;;;;;;;5072060;28;20045;-72
2022/10/11 04:05:41;;;;;;;4.80;3.90;;;;;;;;;;5071954;28;20067;-72
2022/10/11 04:08:07;;;;;;;8.07;3.40;;;;;;;;;;5072243;28;20048;-72
2022/10/11 04:10:38;;;;;;;8.80;4.20;;;;;;;;;;5071923;28;20127;-72
2022/10/11 04:13:05;;;;;;;7.63;4.43;;;;;;;;;;5072298;28;20057;-72
2022/10/11 04:15:31;;;;;;;8.43;4.55;;;;;;;;;;5072018;28;20538;-72
2022/10/11 04:17:58;;;;;;;7.13;4.05;;;;;;;;;;5071851;28;20044;-72
2022/10/11 04:20:24;;;;;;;6.93;4.30;;;;;;;;;;5072125;28;20486;-72
2022/10/11 04:22:51;;;;;;;5.28;4.40;;;;;;;;;;5071919;28;20510;-72
2022/10/11 04:25:17;;;;;;;6.25;4.03;;;;;;;;;;5072061;28;20052;-72
2022/10/11 04:27:43;;;;;;;7.53;4.18;;;;;;;;;;5071962;28;20052;-72
2022/10/11 04:30:10;;;;;;;7.85;4.38;;;;;;;;;;5071780;28;20063;-72
2022/10/11 04:32:36;;;;;;;5.38;3.60;;;;;;;;;;5071596;28;20058;-72
2022/10/11 04:35:03;;;;;;;6.50;4.57;;;;;;;;;;5071676;28;20061;-72
2022/10/11 04:37:30;;;;;;;8.60;4.73;;;;;;;;;;5071980;28;20090;-72
2022/10/11 04:39:56;;;;;;;6.07;4.90;;;;;;;;;;5071589;28;20055;-72
2022/10/11 04:42:22;;;;;;;7.03;4.82;;;;;;;;;;5071487;28;20053;-72
2022/10/11 04:44:49;;;;;;;5.72;4.35;;;;;;;;;;5071502;28;20052;-72
2022/10/11 04:47:15;;;;;;;9.52;4.00;;;;;;;;;;5071802;28;20462;-72
2022/10/11 04:49:42;;;;;;;9.82;4.07;;;;;;;;;;5071515;28;20138;-72
2022/10/11 04:52:08;;;;;;;8.10;4.82;;;;;;;;;;5071435;28;20047;-72
2022/10/11 04:54:35;;;;;;;8.20;4.40;;;;;;;;;;5071782;28;20377;-72
2022/10/11 04:57:01;;;;;;;6.68;4.32;;;;;;;;;;5071506;28;20072;-72
2022/10/11 04:59:28;;;;;;;8.93;4.60;;;;;;;;;;5071531;28;20132;-72
2022/10/11 05:01:54;;;;;;;13.70;4.88;;;;;;;;;;5071328;28;20053;-72
2022/10/11 05:04:21;;;;;;;7.78;4.63;;;;;;;;;;5071571;28;20079;-72
2022/10/11 05:06:47;;;;;;;5.60;3.85;;;;;;;;;;5074124;28;20044;-72
2022/10/11 05:09:13;;;;;;;7.32;4.32;;;;;;;;;;5075442;28;20044;-72
2022/10/11 05:11:40;;;;;;;6.35;4.05;;;;;;;;;;5075519;28;20058;-72
2022/10/11 05:14:06;;;;;;;6.93;3.85;;;;;;;;;;5075234;28;20051;-72
2022/10/11 05:16:33;;;;;;;5.50;4.40;;;;;;;;;;5075409;28;20151;-72
2022/10/11 05:18:59;;;;;;;7.53;4.20;;;;;;;;;;5075505;28;20056;-72
2022/10/11 05:21:27;;;;;;;4.97;3.53;;;;;;;;;;5075211;28;20040;-72
2022/10/11 05:23:55;;;;;;;6.38;3.92;;;;;;;;;;5075289;28;20045;-71
2022/10/11 05:26:21;;;;;;;5.72;3.80;;;;;;;;;;5075266;28;20500;-71
2022/10/11 05:28:48;;;;;;;4.97;3.60;;;;;;;;;;5075045;28;20470;-72
2022/10/11 05:31:15;;;;;;;8.70;4.80;;;;;;;;;;5075427;28;20056;-72
2022/10/11 05:33:42;;;;;;;6.95;4.68;;;;;;;;;;5075149;28;20059;-72
2022/10/11 05:36:09;;;;;;;6.32;4.18;;;;;;;;;;5075309;28;20054;-72
2022/10/11 05:38:36;;;;;;;9.33;3.73;;;;;;;;;;5074904;28;20041;-72
2022/10/11 05:41:03;;;;;;;7.25;3.80;;;;;;;;;;5074797;28;20059;-72
2022/10/11 05:43:29;;;;;;;6.20;4.47;;;;;;;;;;5074634;28;20377;-72
2022/10/11 05:45:56;;;;;;;7.22;3.70;;;;;;;;;;5075085;28;20067;-72
2022/10/11 05:48:23;;;;;;;7.45;4.05;;;;;;;;;;5073335;28;20052;-72
2022/10/11 05:50:49;;;;;;;8.57;4.63;;;;;;;;;;5074679;28;20055;-70
2022/10/11 05:53:15;;;;;;;10.18;5.05;;;;;;;;;;5074458;28;20052;-70
2022/10/11 05:55:42;;;;;;;7.88;4.57;;;;;;;;;;5074478;28;20048;-70
2022/10/11 05:58:12;;;;;;;6.72;4.60;;;;;;;;;;5074897;28;20071;-70
2022/10/11 06:00:38;;;;;;;9.43;5.07;;;;;;;;;;5074584;28;20048;-70
2022/10/11 06:03:06;;;;;;;10.65;4.60;;;;;;;;;;5068648;28;20053;-70
2022/10/11 06:05:33;;;;;;;8.27;5.03;;;;;;;;;;5058371;28;20047;-70
2022/10/11 06:07:59;;;;;;;8.88;5.40;;;;;;;;;;5074048;28;20288;-70
2022/10/11 06:10:26;;;;;;;9.05;4.53;;;;;;;;;;5074093;28;20059;-70
2022/10/11 06:12:52;;;;;;;7.72;4.97;;;;;;;;;;5074204;28;20354;-70
2022/10/11 06:15:19;;;;;;;8.68;4.88;;;;;;;;;;5059211;28;20049;-70
2022/10/11 06:17:45;;;;;;;7.50;5.50;;;;;;;;;;5050098;28;20504;-70
2022/10/11 06:20:12;;;;;;;7.38;4.75;;;;;;;;;;5053805;28;20044;-69
2022/10/11 06:22:39;;;;;;;6.65;4.78;;;;;;;;;;5053151;28;20059;-69
2022/10/11 06:25:06;;;;;;;6.07;5.05;;;;;;;;;;5053439;28;20055;-69
2022/10/11 06:27:32;;;;;;;5.88;4.15;;;;;;;;;;5066663;28;20051;-71
2022/10/11 06:29:59;;;;;;;7.70;4.80;;;;;;;;;;5072524;28;20346;-70
2022/10/11 06:32:25;;;;;;;5.75;4.05;;;;;;;;;;5072832;28;20056;-70
2022/10/11 06:34:52;;;;;;;8.98;3.80;;;;;;;;;;5073433;28;20053;-69
2022/10/11 06:37:18;;;;;;;10.15;4.13;;;;;;;;;;5059798;28;20048;-70
2022/10/11 06:39:45;;;;;;;16.88;6.53;;;;;;;;;;5073606;28;20064;-68
2022/10/11 06:42:11;;;;;;;8.95;3.85;;;;;;;;;;5071452;28;20063;-69
2022/10/11 06:44:38;;;;;;;9.65;4.47;;;;;;;;;;5053311;28;20064;-70
2022/10/11 06:47:05;;;;;;;13.30;5.80;;;;;;;;;;5052818;28;20044;-69
2022/10/11 06:49:31;;;;;;;9.43;5.10;;;;;;;;;;5053042;28;20056;-70
2022/10/11 06:51:57;;;;;;;7.55;4.88;;;;;;;;;;5052870;28;20050;-69
2022/10/11 06:54:24;;;;;;;8.27;5.53;;;;;;;;;;5051799;28;20068;-69
2022/10/11 06:56:50;;;;;;;5.57;4.00;;;;;;;;;;5053501;28;20139;-69
2022/10/11 06:59:17;;;;;;;6.18;4.13;;;;;;;;;;5064053;28;20484;-69
2022/10/11 07:01:43;;;;;;;7.30;5.10;;;;;;;;;;5073224;28;20067;-70
2022/10/11 07:04:10;;;;;;;11.05;5.20;;;;;;;;;;5065764;28;20059;-69
2022/10/11 07:06:37;;;;;;;5.55;4.35;;;;;;;;;;5052806;28;20045;-69
2022/10/11 07:09:04;;;;;;;6.90;4.93;;;;;;;;;;5052961;28;20041;-69
2022/10/11 07:11:31;;;;;;;9.90;5.28;;;;;;;;;;5052616;28;20059;-70
2022/10/11 07:13:59;;;;;;;9.45;4.78;;;;;;;;;;5064379;28;20052;-70
2022/10/11 07:16:26;;;;;;;9.95;5.20;;;;;;;;;;5054455;28;20054;-68
2022/10/11 07:18:53;;;;;;;8.23;5.50;;;;;;;;;;5058240;28;20049;-67
2022/10/11 07:21:25;;;;;;;8.90;5.50;;;;;;;;;;5039273;28;20302;-67
2022/10/11 07:23:52;;;;;;;9.85;6.07;;;;;;;;;;5057656;28;20053;-67
2022/10/11 07:26:18;;;;;;;9.07;5.18;;;;;;;;;;5072309;28;20049;-67
2022/10/11 07:28:45;;;;;;;10.63;5.28;;;;;;;;;;5071027;28;20059;-66
2022/10/11 07:31:16;;;;;;;7.13;4.55;;;;;;;;;;5059350;28;20496;-67
2022/10/11 07:33:43;;;;;;;7.55;5.72;;;;;;;;;;5055851;28;20060;-67
2022/10/11 07:36:10;;;;;;;8.23;5.53;;;;;;;;;;5054785;28;20071;-67
2022/10/11 07:38:40;;;;;;;8.57;5.30;;;;;;;;;;5066281;28;20052;-67
2022/10/11 07:41:06;;;;;;;10.57;6.10;;;;;;;;;;5072683;28;20052;-67
2022/10/11 07:43:33;;;;;;;13.05;7.25;;;;;;;;;;5057850;28;20408;-67
2022/10/11 07:46:02;;;;;;;10.45;6.40;;;;;;;;;;5071344;28;20067;-67
2022/10/11 07:48:30;;;;;;;9.82;6.47;;;;;;;;;;5072432;28;20044;-67
2022/10/11 07:51:00;;;;;;;16.63;9.38;;;;;;;;;;5072288;28;20412;-67
2022/10/11 07:53:27;;;;;;;17.92;10.75;;;;;;;;;;5072284;28;20072;-67
2022/10/11 07:55:53;;;;;;;17.77;10.02;;;;;;;;;;5072231;28;20103;-81
2022/10/11 07:58:19;;;;;;;12.68;7.80;;;;;;;;;;5071228;28;20128;-83
2022/10/11 08:00:51;;;;;;;16.52;9.60;;;;;;;;;;5072032;28;20468;-84
2022/10/11 08:03:17;;;;;;;13.90;10.00;;;;;;;;;;5053634;28;20049;-81
2022/10/11 08:05:44;;;;;;;16.83;10.40;;;;;;;;;;5052003;28;20045;-77
2022/10/11 08:08:10;;;;;;;16.40;10.40;;;;;;;;;;5051750;28;20400;-84
2022/10/11 08:10:38;;;;;;;16.77;9.70;;;;;;;;;;5049648;28;20045;-79
2022/10/11 08:13:04;;;;;;;16.10;9.45;;;;;;;;;;5050148;28;20048;-84
2022/10/11 08:15:31;;;;;;;13.43;8.20;;;;;;;;;;5051291;28;20048;-80
2022/10/11 08:17:57;;;;;;;17.13;8.80;;;;;;;;;;5051894;28;20060;-84
2022/10/11 08:20:24;;;;;;;12.85;8.23;;;;;;;;;;5051280;28;20049;-78
2022/10/11 08:22:50;;;;;;;14.80;9.05;;;;;;;;;;5050292;28;20148;-80
2022/10/11 08:25:16;;;;;;;16.45;8.98;;;;;;;;;;5047984;28;20167;-82
2022/10/11 08:27:43;;;;;;;14.43;12.10;;;;;;;;;;5051871;28;20139;-78
2022/10/11 08:30:09;;;;;;;15.70;11.15;;;;;;;;;;5050238;28;20079;-77
2022/10/11 08:32:36;;;;;;;13.20;8.50;;;;;;;;;;5049564;28;20049;-76
2022/10/11 08:35:02;;;;;;;12.00;8.50;;;;;;;;;;5051220;28;20053;-78
2022/10/11 08:37:29;;;;;;;14.50;8.20;;;;;;;;;;5051322;28;20057;-81
2022/10/11 08:39:55;;;;;;;10.80;7.67;;;;;;;;;;5051162;28;20139;-77
2022/10/11 08:42:44;;;;;;;14.65;7.10;;;;;;;;;;5049460;28;20323;-74
2022/10/11 08:45:40;;;;;;;12.18;6.88;;;;;;;;;;5059550;28;20040;-83
2022/10/11 08:48:20;;;;;;;14.13;6.50;;;;;;;;;;5062151;28;20054;-78
2022/10/11 08:50:49;;;;;;;18.48;9.85;;;;;;;;;;5070547;28;20511;-78
2022/10/11 08:53:39;;;;;;;19.38;10.50;;;;;;;;;;5057924;28;20045;-78
2022/10/11 08:56:08;;;;;;;11.75;6.97;;;;;;;;;;5071363;28;20048;-77
2022/10/11 08:58:38;;;;;;;18.08;9.10;;;;;;;;;;5063034;28;20040;-77
2022/10/11 09:01:05;;;;;;;16.92;8.70;;;;;;;;;;5070971;28;20051;-85
2022/10/11 09:03:35;;;;;;;14.50;7.40;;;;;;;;;;5050805;28;20068;-84
2022/10/11 09:06:20;;;;;;;15.65;7.20;;;;;;;;;;5060429;28;20048;-87
2022/10/11 09:08:49;;;;;;;14.13;6.70;;;;;;;;;;5062749;28;20044;-85
2022/10/11 09:11:16;;;;;;;13.02;6.25;;;;;;;;;;5068902;28;20512;-86
2022/10/11 09:13:54;;;;;;;11.77;5.77;;;;;;;;;;5071128;28;20470;-85
2022/10/11 09:16:38;;;;;;;13.57;5.50;;;;;;;;;;5070929;28;20045;-82
2022/10/11 09:19:23;;;;;;;8.90;5.32;;;;;;;;;;5071234;28;20048;-83
2022/10/11 09:22:08;;;;;;;9.57;5.13;;;;;;;;;;5065903;28;20055;-82
2022/10/11 09:24:53;;;;;;;14.02;5.90;;;;;;;;;;5071785;28;20399;-85
2022/10/11 09:27:27;;;;;;;9.63;5.20;;;;;;;;;;5069513;28;20045;-82
2022/10/11 09:30:18;;;;;;;8.07;4.53;;;;;;;;;;5070548;28;20526;-84
2022/10/11 09:32:46;;;;;;;9.93;3.92;;;;;;;;;;5070460;28;20100;-85
2022/10/11 09:35:14;;;;;;;11.60;4.07;;;;;;;;;;5070878;28;20056;-82
2022/10/11 09:37:53;;;;;;;10.85;3.72;;;;;;;;;;5069653;28;20051;-87
2022/10/11 09:40:37;;;;;;;10.15;3.53;;;;;;;;;;5070529;28;20484;-82
2022/10/11 09:43:03;;;;;;;9.90;3.10;;;;;;;;;;5070433;28;20480;-81
2022/10/11 09:45:30;;;;;;;10.48;3.05;;;;;;;;;;5069333;28;20124;-82
2022/10/11 09:47:58;;;;;;;9.32;2.67;;;;;;;;;;5061614;28;20048;-81
2022/10/11 09:50:25;;;;;;;7.35;2.33;;;;;;;;;;5068258;28;20044;-81
2022/10/11 09:52:53;;;;;;;8.43;2.40;;;;;;;;;;5071123;28;20083;-81
2022/10/11 09:55:31;;;;;;;7.95;2.10;;;;;;;;;;5060408;28;20510;-77
2022/10/11 09:57:58;;;;;;;7.15;1.90;;;;;;;;;;5073606;28;20773;-77
2022/10/11 10:00:25;;;;;;;6.47;2.33;;;;;;;;;;5074286;28;20410;-76
2022/10/11 10:02:53;;;;;;;8.73;2.38;;;;;;;;;;5073442;28;20053;-76
2022/10/11 10:05:22;;;;;;;11.30;2.45;;;;;;;;;;5074384;28;20051;-77
2022/10/11 10:08:07;;;;;;;6.75;2.22;;;;;;;;;;5074586;28;20774;-77
2022/10/11 10:10:37;;;;;;;7.82;2.30;;;;;;;;;;5073374;28;20047;-77
2022/10/11 10:13:05;;;;;;;7.45;2.15;;;;;;;;;;5073389;28;20132;-77
2022/10/11 10:15:35;;;;;;;6.57;2.25;;;;;;;;;;5074341;28;20049;-77
2022/10/11 10:18:02;;;;;;;6.72;1.90;;;;;;;;;;5074459;28;20055;-78
2022/10/11 10:20:31;;;;;;;7.38;2.00;;;;;;;;;;5074346;28;20057;-78
2022/10/11 10:22:59;;;;;;;7.30;2.03;;;;;;;;;;5074453;28;20049;-77
2022/10/11 10:25:31;;;;;;;9.65;2.80;;;;;;;;;;5074185;28;20064;-77
2022/10/11 10:27:59;;;;;;;6.40;1.75;;;;;;;;;;5074405;28;20045;-78
2022/10/11 10:30:26;;;;;;;6.95;2.45;;;;;;;;;;5074139;28;20089;-77
2022/10/11 10:32:58;;;;;;;10.18;2.00;;;;;;;;;;5073775;28;20059;-77
2022/10/11 10:35:28;;;;;;;6.95;2.10;;;;;;;;;;5073793;28;20143;-77
2022/10/11 10:37:54;;;;;;;8.52;2.38;;;;;;;;;;5074020;28;20055;-77
2022/10/11 10:40:23;;;;;;;9.85;2.05;;;;;;;;;;5074117;28;20047;-78
2022/10/11 10:42:49;;;;;;;6.68;2.17;;;;;;;;;;5074070;28;20052;-76
2022/10/11 10:45:16;;;;;;;;;;;;;;;;;;5074034;28;20037;-78
2022/10/11 10:47:56;;;;;;;7.53;2.60;;;;;;;;;;5073663;28;19926;-78
2022/10/11 10:50:25;;;;;;;11.43;2.00;;;;;;;;;;5073825;28;20311;-78
2022/10/11 10:53:18;;;;;;;9.88;2.03;;;;;;;;;;5073835;28;20052;-77
2022/10/11 10:55:48;;;;;;;8.63;1.88;;;;;;;;;;5052188;28;20055;-77
2022/10/11 10:58:21;;;;;;;9.73;2.22;;;;;;;;;;5071276;28;20066;-77
2022/10/11 11:00:49;;;;;;;7.70;2.00;;;;;;;;;;5073620;28;20056;-78
2022/10/11 11:03:19;;;;;;;8.05;1.85;;;;;;;;;;5072346;28;20056;-78
2022/10/11 11:06:02;;;;;;;7.30;1.75;;;;;;;;;;5057498;28;20407;-77
2022/10/11 11:08:37;;;;;;;6.18;1.33;;;;;;;;;;5073168;28;20060;-78
2022/10/11 11:11:06;;;;;;;8.40;2.10;;;;;;;;;;5073487;28;20048;-76
2022/10/11 11:13:42;;;;;;;6.75;1.73;;;;;;;;;;5050356;28;20051;-77
2022/10/11 11:16:17;;;;;;;3.80;1.20;;;;;;;;;;5064030;28;20052;-77
2022/10/11 11:18:56;;;;;;;5.20;1.45;;;;;;;;;;5057091;28;20063;-78
2022/10/11 11:21:40;;;;;;;7.10;2.00;;;;;;;;;;5069874;28;20048;-76
2022/10/11 11:24:21;;;;;;;6.72;1.60;;;;;;;;;;5053513;28;20053;-75
2022/10/11 11:26:56;;;;;;;5.80;1.80;;;;;;;;;;5059965;28;20059;-75
2022/10/11 11:29:42;;;;;;;4.40;1.65;;;;;;;;;;5071735;28;20135;-75
2022/10/11 11:32:14;;;;;;;6.67;1.30;;;;;;;;;;5071705;28;20131;-75
2022/10/11 11:35:01;;;;;;;6.13;1.67;;;;;;;;;;5072537;28;20045;-75
2022/10/11 11:37:33;;;;;;;7.40;1.50;;;;;;;;;;5072479;28;20052;-75
2022/10/11 11:40:16;;;;;;;5.45;1.75;;;;;;;;;;5072530;28;20503;-75
2022/10/11 11:42:52;;;;;;;5.25;1.42;;;;;;;;;;5072521;28;20523;-75
2022/10/11 11:45:30;;;;;;;6.57;1.73;;;;;;;;;;5072674;28;20048;-75
2022/10/11 11:48:09;;;;;;;5.00;1.58;;;;;;;;;;5058997;28;20071;-74
2022/10/11 11:50:40;;;;;;;6.57;1.80;;;;;;;;;;5045912;28;20046;-74
2022/10/11 11:53:12;;;;;;;6.68;1.38;;;;;;;;;;5072543;28;20096;-74
2022/10/11 11:55:53;;;;;;;5.75;1.90;;;;;;;;;;5072241;28;20058;-74
2022/10/11 11:58:23;;;;;;;4.15;1.35;;;;;;;;;;5071919;28;20508;-74
2022/10/11 12:01:05;;;;;;;8.77;1.60;;;;;;;;;;5060120;28;20057;-74
2022/10/11 12:03:35;;;;;;;4.80;1.65;;;;;;;;;;5069017;28;20133;-73
2022/10/11 12:06:12;;;;;;;5.45;1.40;;;;;;;;;;5072311;28;20048;-73
2022/10/11 12:08:43;;;;;;;3.35;1.35;;;;;;;;;;5055790;28;20045;-74
2022/10/11 12:11:18;;;;;;;4.80;1.20;;;;;;;;;;5053238;28;20047;-73
2022/10/11 12:13:46;;;;;;;5.55;1.88;;;;;;;;;;5072290;28;20044;-73
2022/10/11 12:16:13;;;;;;;5.50;1.58;;;;;;;;;;5071683;28;20063;-74
2022/10/11 12:18:51;;;;;;;7.30;1.70;;;;;;;;;;5055664;28;20510;-74
2022/10/11 12:21:19;;;;;;;4.10;1.38;;;;;;;;;;5071833;28;20063;-73
2022/10/11 12:23:47;;;;;;;6.35;1.63;;;;;;;;;;5071751;28;20468;-73
2022/10/11 12:26:34;;;;;;;4.97;1.50;;;;;;;;;;5072007;28;20048;-73
2022/10/11 12:29:15;;;;;;;4.30;1.80;;;;;;;;;;5071910;28;20044;-73
2022/10/11 12:31:43;;;;;;;5.20;1.48;;;;;;;;;;5072108;28;20037;-72
2022/10/11 12:34:24;;;;;;;4.80;1.30;;;;;;;;;;5071815;28;20084;-73
2022/10/11 12:36:51;;;;;;;5.22;1.40;;;;;;;;;;5070559;28;20052;-73
2022/10/11 12:39:18;;;;;;;5.90;1.50;;;;;;;;;;5072044;28;20420;-73
2022/10/11 12:41:50;;;;;;;4.93;1.70;;;;;;;;;;5071575;28;20055;-74
2022/10/11 12:44:19;;;;;;;5.55;1.50;;;;;;;;;;5071623;28;20048;-73
2022/10/11 12:46:48;;;;;;;5.15;1.75;;;;;;;;;;5057088;28;20131;-73
2022/10/11 12:49:15;;;;;;;6.85;1.50;;;;;;;;;;5065476;28;20058;-73
2022/10/11 12:51:49;;;;;;;5.43;1.42;;;;;;;;;;5070674;28;20411;-72
2022/10/11 12:54:19;;;;;;;3.22;1.38;;;;;;;;;;5070071;28;20056;-72
2022/10/11 12:56:55;;;;;;;5.85;1.58;;;;;;;;;;5070964;28;20052;-72
2022/10/11 12:59:22;;;;;;;4.32;1.42;;;;;;;;;;5071220;28;20056;-72
2022/10/11 13:01:51;;;;;;;5.45;1.50;;;;;;;;;;5068627;28;20044;-72
2022/10/11 13:04:19;;;;;;;3.28;1.20;;;;;;;;;;5050279;28;20071;-72
2022/10/11 13:06:52;;;;;;;5.22;1.38;;;;;;;;;;5060104;28;20045;-71
2022/10/11 13:09:27;;;;;;;6.20;1.38;;;;;;;;;;5048648;28;20045;-72
2022/10/11 13:11:57;;;;;;;2.78;1.02;;;;;;;;;;5049157;28;20520;-71
2022/10/11 13:14:25;;;;;;;3.78;1.40;;;;;;;;;;5054095;28;20070;-72
2022/10/11 13:16:54;;;;;;;6.10;1.52;;;;;;;;;;5071249;28;20041;-71
2022/10/11 13:19:21;;;;;;;5.97;1.63;;;;;;;;;;5058671;28;20052;-72
2022/10/11 13:21:55;;;;;;;7.60;1.73;;;;;;;;;;5062301;28;20382;-72
2022/10/11 13:24:23;;;;;;;4.07;1.37;;;;;;;;;;5062343;28;20518;-72
2022/10/11 13:26:50;;;;;;;5.95;1.70;;;;;;;;;;5071650;28;20040;-72
2022/10/11 13:29:25;;;;;;;5.97;1.23;;;;;;;;;;5074879;28;20088;-73
2022/10/11 13:31:52;;;;;;;8.25;1.70;;;;;;;;;;5074812;28;20053;-72
2022/10/11 13:34:18;;;;;;;4.85;1.30;;;;;;;;;;5074273;28;20416;-74
2022/10/11 13:36:53;;;;;;;7.68;1.80;;;;;;;;;;5074343;28;20059;-72
2022/10/11 13:39:26;;;;;;;3.97;1.40;;;;;;;;;;5074726;28;20052;-73
2022/10/11 13:41:57;;;;;;;5.68;1.30;;;;;;;;;;5064908;28;20131;-73
2022/10/11 13:44:24;;;;;;;5.40;1.15;;;;;;;;;;5074709;28;20052;-73
2022/10/11 13:46:50;;;;;;;;;;;;;;;;;;5074439;28;20123;-72
2022/10/11 13:49:36;;;;;;;6.78;1.67;;;;;;;;;;5074412;28;19931;-73
2022/10/11 13:52:20;;;;;;;4.70;1.27;;;;;;;;;;5059630;28;20047;-73
2022/10/11 13:55:02;;;;;;;5.28;1.27;;;;;;;;;;5074365;28;20051;-72
2022/10/11 13:57:34;;;;;;;3.25;1.17;;;;;;;;;;5074542;28;20052;-72
2022/10/11 14:00:06;;;;;;;10.05;1.80;;;;;;;;;;5074362;28;20058;-68
2022/10/11 14:02:33;;;;;;;4.65;1.10;;;;;;;;;;5073034;28;20122;-66
2022/10/11 14:04:59;;;;;;;6.40;1.70;;;;;;;;;;5074077;28;20052;-65
2022/10/11 14:07:26;;;;;;;6.50;1.10;;;;;;;;;;5066048;28;20314;-65
2022/10/11 14:09:53;;;;;;;4.00;1.17;;;;;;;;;;5053587;28;20049;-65
2022/10/11 14:12:27;;;;;;;4.53;1.42;;;;;;;;;;5063221;28;20052;-65
2022/10/11 14:14:53;;;;;;;5.72;1.27;;;;;;;;;;5063823;28;20129;-65
2022/10/11 14:17:21;;;;;;;6.68;1.35;;;;;;;;;;5072612;28;20439;-65
2022/10/11 14:20:01;;;;;;;4.18;1.13;;;;;;;;;;5072387;28;20492;-65
2022/10/11 14:22:35;;;;;;;5.75;1.40;;;;;;;;;;5074008;28;20483;-65
2022/10/11 14:25:01;;;;;;;5.83;1.40;;;;;;;;;;5069730;28;20480;-65
2022/10/11 14:27:28;;;;;;;5.80;1.40;;;;;;;;;;5073487;28;20786;-64
2022/10/11 14:29:54;;;;;;;5.22;1.00;;;;;;;;;;5073712;28;20052;-65
2022/10/11 14:32:41;;;;;;;6.70;1.20;;;;;;;;;;5073207;28;20513;-65
2022/10/11 14:35:19;;;;;;;6.97;1.15;;;;;;;;;;5073641;28;20130;-65
2022/10/11 14:37:46;;;;;;;7.70;1.42;;;;;;;;;;5073312;28;20056;-65
2022/10/11 14:40:14;;;;;;;6.43;1.73;;;;;;;;;;5072597;28;20503;-65
2022/10/11 14:42:40;;;;;;;5.45;1.17;;;;;;;;;;5071448;28;20044;-65
2022/10/11 14:45:07;;;;;;;4.60;1.10;;;;;;;;;;5073361;28;20053;-65
2022/10/11 14:47:34;;;;;;;5.53;1.10;;;;;;;;;;5073368;28;20101;-65
2022/10/11 14:50:20;;;;;;;5.35;1.20;;;;;;;;;;5073365;28;20401;-65
2022/10/11 14:52:46;;;;;;;3.40;1.23;;;;;;;;;;5073045;28;20541;-65
2022/10/11 14:55:12;;;;;;;4.63;1.38;;;;;;;;;;5073309;28;20055;-65
2022/10/11 14:57:39;;;;;;;5.95;1.60;;;;;;;;;;5073492;28;20420;-65